Time,TemperatureF,DewpointF,PressureIn,WindDirection,WindDirectionDegrees,WindSpeedMPH,WindSpeedGustMPH,Humidity,HourlyPrecipIn,Conditions,Clouds,dailyrainin,SoftwareType,DateUTC
2013-04-04 00:01:00,43.5,43.3,30.13,West,270,0.0,-999.0,99,-99.99,,,0.00,Acu-Link.com,2013-04-04 05:01:00,
2013-04-04 00:16:00,43.3,43.1,30.13,SW,225,2.2,-999.0,99,-99.99,,,0.01,Acu-Link.com,2013-04-04 05:16:00,
2013-04-04 00:31:00,43.3,43.1,30.13,West,270,1.6,-999.0,99,-99.99,,,0.01,Acu-Link.com,2013-04-04 05:31:00,
2013-04-04 00:47:00,43.2,42.9,30.13,SW,225,1.1,-999.0,99,-99.99,,,0.01,Acu-Link.com,2013-04-04 05:47:00,
2013-04-04 01:17:00,42.8,42.5,30.13,NNW,337,1.6,-999.0,99,-99.99,,,0.01,Acu-Link.com,2013-04-04 06:17:00,
2013-04-04 01:32:00,42.8,42.5,30.13,NW,315,3.8,-999.0,99,-99.99,,,0.01,Acu-Link.com,2013-04-04 06:32:00,
2013-04-04 01:48:00,42.6,42.4,30.13,WNW,292,3.1,-999.0,99,-99.99,,,0.01,Acu-Link.com,2013-04-04 06:48:00,
2013-04-04 02:03:00,42.6,42.4,30.12,West,270,4.3,-999.0,99,-99.99,,,0.01,Acu-Link.com,2013-04-04 07:03:00,
2013-04-04 02:18:00,42.6,42.4,30.11,West,270,2.7,-999.0,99,-99.99,,,0.01,Acu-Link.com,2013-04-04 07:18:00,
2013-04-04 02:33:00,42.6,42.4,30.11,West,270,1.6,-999.0,99,-99.99,,,0.01,Acu-Link.com,2013-04-04 07:33:00,
2013-04-04 02:48:00,42.6,42.4,30.11,SW,225,0.0,-999.0,99,-99.99,,,0.01,Acu-Link.com,2013-04-04 07:48:00,
2013-04-04 03:04:00,42.3,42.0,30.11,West,270,3.1,-999.0,99,-99.99,,,0.01,Acu-Link.com,2013-04-04 08:04:00,
2013-04-04 03:19:00,42.4,42.2,30.11,WSW,247,2.7,-999.0,99,-99.99,,,0.01,Acu-Link.com,2013-04-04 08:19:00,
2013-04-04 03:34:00,42.3,42.0,30.10,West,270,2.2,-999.0,99,-99.99,,,0.01,Acu-Link.com,2013-04-04 08:34:00,
2013-04-04 03:50:00,42.3,42.0,30.10,West,270,2.7,-999.0,99,-99.99,,,0.01,Acu-Link.com,2013-04-04 08:50:00,
2013-04-04 04:05:00,42.4,42.2,30.10,West,270,2.2,-999.0,99,-99.99,,,0.01,Acu-Link.com,2013-04-04 09:05:00,
2013-04-04 04:20:00,42.3,42.0,30.10,South,180,4.7,-999.0,99,-99.99,,,0.01,Acu-Link.com,2013-04-04 09:20:00,
2013-04-04 04:35:00,42.3,42.0,30.09,WNW,292,2.2,-999.0,99,-99.99,,,0.01,Acu-Link.com,2013-04-04 09:35:00,
2013-04-04 04:50:00,42.1,41.8,30.09,South,180,2.2,-999.0,99,-99.99,,,0.01,Acu-Link.com,2013-04-04 09:50:00,
2013-04-04 05:06:00,42.1,41.8,30.10,WNW,292,2.2,-999.0,99,-99.99,,,0.01,Acu-Link.com,2013-04-04 10:06:00,
2013-04-04 05:36:00,42.3,42.0,30.10,SW,225,1.1,-999.0,99,-99.99,,,0.01,Acu-Link.com,2013-04-04 10:36:00,
2013-04-04 06:22:00,42.3,42.0,30.10,West,270,2.2,-999.0,99,-99.99,,,0.01,Acu-Link.com,2013-04-04 11:22:00,
2013-04-04 06:37:00,42.3,42.0,30.10,SW,225,2.2,-999.0,99,-99.99,,,0.01,Acu-Link.com,2013-04-04 11:37:00,
2013-04-04 06:52:00,42.3,42.0,30.11,SSW,202,2.2,-999.0,99,-99.99,,,0.01,Acu-Link.com,2013-04-04 11:52:00,
2013-04-04 07:07:00,42.4,42.2,30.11,SW,225,2.7,-999.0,99,-99.99,,,0.01,Acu-Link.com,2013-04-04 12:07:00,
2013-04-04 07:22:00,42.4,42.2,30.11,SSW,202,3.1,-999.0,99,-99.99,,,0.01,Acu-Link.com,2013-04-04 12:22:00,
2013-04-04 07:38:00,42.6,42.1,30.12,NNW,337,2.2,-999.0,98,-99.99,,,0.01,Acu-Link.com,2013-04-04 12:38:00,
2013-04-04 07:53:00,42.6,42.1,30.12,West,270,5.1,-999.0,98,-99.99,,,0.01,Acu-Link.com,2013-04-04 12:53:00,
2013-04-04 08:08:00,42.6,41.6,30.13,WSW,247,6.7,-999.0,96,-99.99,,,0.01,Acu-Link.com,2013-04-04 13:08:00,
2013-04-04 09:09:00,43.3,41.7,30.14,NW,315,2.7,-999.0,94,-99.99,,,0.01,Acu-Link.com,2013-04-04 14:09:00,
2013-04-04 09:24:00,43.3,41.7,30.14,SSW,202,3.8,-999.0,94,-99.99,,,0.01,Acu-Link.com,2013-04-04 14:24:00,
2013-04-04 09:39:00,43.3,41.7,30.15,SW,225,2.7,-999.0,94,-99.99,,,0.01,Acu-Link.com,2013-04-04 14:39:00,
2013-04-04 09:55:00,43.5,41.1,30.15,West,270,2.2,-999.0,91,-99.99,,,0.01,Acu-Link.com,2013-04-04 14:55:00,
2013-04-04 10:10:00,43.9,41.1,30.15,West,270,4.3,-999.0,90,-99.99,,,0.01,Acu-Link.com,2013-04-04 15:10:00,
2013-04-04 10:25:00,44.2,41.5,30.16,SSW,202,3.1,-999.0,90,-99.99,,,0.01,Acu-Link.com,2013-04-04 15:25:00,
2013-04-04 10:40:00,44.4,41.7,30.17,West,270,2.7,-999.0,90,-99.99,,,0.01,Acu-Link.com,2013-04-04 15:40:00,
2013-04-04 10:55:00,44.4,41.4,30.17,West,270,3.8,-999.0,89,-99.99,,,0.01,Acu-Link.com,2013-04-04 15:55:00,
2013-04-04 11:11:00,44.2,41.5,30.18,SW,225,5.8,-999.0,90,-99.99,,,0.01,Acu-Link.com,2013-04-04 16:11:00,
2013-04-04 11:41:00,46.0,42.1,30.18,SW,225,4.3,-999.0,86,-99.99,,,0.01,Acu-Link.com,2013-04-04 16:41:00,
2013-04-04 11:56:00,45.7,41.7,30.19,WSW,247,2.7,-999.0,86,-99.99,,,0.01,Acu-Link.com,2013-04-04 16:56:00,
2013-04-04 12:11:00,45.5,42.2,30.19,West,270,5.8,-999.0,88,-99.99,,,0.01,Acu-Link.com,2013-04-04 17:11:00,
2013-04-04 12:27:00,45.3,41.1,30.19,NW,315,4.7,-999.0,85,-99.99,,,0.01,Acu-Link.com,2013-04-04 17:27:00,
2013-04-04 12:42:00,46.8,41.9,30.18,WNW,292,3.8,-999.0,83,-99.99,,,0.01,Acu-Link.com,2013-04-04 17:42:00,
2013-04-04 12:57:00,49.1,44.2,30.18,SSW,202,2.7,-999.0,83,-99.99,,,0.01,Acu-Link.com,2013-04-04 17:57:00,
2013-04-04 13:12:00,51.3,44.6,30.18,WSW,247,4.3,-999.0,78,-99.99,,,0.01,Acu-Link.com,2013-04-04 18:12:00,
2013-04-04 13:28:00,50.9,42.6,30.16,South,180,5.8,-999.0,73,-99.99,,,0.01,Acu-Link.com,2013-04-04 18:28:00,
2013-04-04 13:43:00,48.7,41.9,30.16,South,180,5.8,-999.0,77,-99.99,,,0.01,Acu-Link.com,2013-04-04 18:43:00,
2013-04-04 13:58:00,50.5,42.6,30.15,West,270,2.7,-999.0,74,-99.99,,,0.01,Acu-Link.com,2013-04-04 18:58:00,
2013-04-04 14:13:00,49.5,41.5,30.15,West,270,4.3,-999.0,74,-99.99,,,0.01,Acu-Link.com,2013-04-04 19:13:00,
2013-04-04 14:44:00,50.2,42.6,30.14,SSW,202,3.8,-999.0,75,-99.99,,,0.01,Acu-Link.com,2013-04-04 19:44:00,
2013-04-04 14:59:00,50.2,42.2,30.14,NNE,22,4.3,-999.0,74,-99.99,,,0.01,Acu-Link.com,2013-04-04 19:59:00,
2013-04-04 15:14:00,50.9,43.3,30.13,West,270,3.1,-999.0,75,-99.99,,,0.01,Acu-Link.com,2013-04-04 20:14:00,
2013-04-04 15:29:00,50.5,42.2,30.13,WNW,292,5.1,-999.0,73,-99.99,,,0.01,Acu-Link.com,2013-04-04 20:29:00,
2013-04-04 15:44:00,50.9,42.6,30.13,SSE,157,4.7,-999.0,73,-99.99,,,0.01,Acu-Link.com,2013-04-04 20:44:00,
2013-04-04 16:00:00,50.4,42.0,30.12,WNW,292,2.7,-999.0,73,-99.99,,,0.01,Acu-Link.com,2013-04-04 21:00:00,
2013-04-04 16:15:00,51.1,42.7,30.11,SW,225,2.7,-999.0,73,-99.99,,,0.01,Acu-Link.com,2013-04-04 21:15:00,
2013-04-04 16:30:00,50.7,41.7,30.11,North,0,3.8,-999.0,71,-99.99,,,0.01,Acu-Link.com,2013-04-04 21:30:00,
2013-04-04 16:45:00,50.5,42.2,30.11,West,270,2.7,-999.0,73,-99.99,,,0.01,Acu-Link.com,2013-04-04 21:45:00,
2013-04-04 17:00:00,51.1,42.4,30.11,SW,225,2.7,-999.0,72,-99.99,,,0.01,Acu-Link.com,2013-04-04 22:00:00,
2013-04-04 17:16:00,50.7,42.4,30.11,WSW,247,1.6,-999.0,73,-99.99,,,0.01,Acu-Link.com,2013-04-04 22:16:00,
2013-04-04 17:31:00,50.9,42.2,30.11,SSW,202,2.2,-999.0,72,-99.99,,,0.01,Acu-Link.com,2013-04-04 22:31:00,
2013-04-04 17:46:00,51.3,42.5,30.11,WNW,292,5.1,-999.0,72,-99.99,,,0.01,Acu-Link.com,2013-04-04 22:46:00,
2013-04-04 18:01:00,50.9,42.6,30.11,West,270,2.7,-999.0,73,-99.99,,,0.01,Acu-Link.com,2013-04-04 23:01:00,
2013-04-04 18:16:00,50.7,42.4,30.11,West,270,4.3,-999.0,73,-99.99,,,0.01,Acu-Link.com,2013-04-04 23:16:00,
2013-04-04 18:32:00,50.7,42.7,30.12,SSE,157,2.7,-999.0,74,-99.99,,,0.01,Acu-Link.com,2013-04-04 23:32:00,
2013-04-04 18:47:00,50.7,42.7,30.12,South,180,2.7,-999.0,74,-99.99,,,0.01,Acu-Link.com,2013-04-04 23:47:00,
2013-04-04 19:02:00,50.5,42.6,30.11,WNW,292,2.7,-999.0,74,-99.99,,,0.01,Acu-Link.com,2013-04-05 00:02:00,
2013-04-04 19:17:00,50.5,42.9,30.11,NNE,22,1.6,-999.0,75,-99.99,,,0.01,Acu-Link.com,2013-04-05 00:17:00,
2013-04-04 19:33:00,50.4,42.7,30.11,SW,225,1.6,-999.0,75,-99.99,,,0.01,Acu-Link.com,2013-04-05 00:33:00,
2013-04-04 19:48:00,50.2,42.6,30.12,NW,315,3.8,-999.0,75,-99.99,,,0.01,Acu-Link.com,2013-04-05 00:48:00,
2013-04-04 20:03:00,50.0,42.7,30.12,West,270,4.3,-999.0,76,-99.99,,,0.01,Acu-Link.com,2013-04-05 01:03:00,
2013-04-04 20:18:00,49.8,42.9,30.13,West,270,3.1,-999.0,77,-99.99,,,0.01,Acu-Link.com,2013-04-05 01:18:00,
2013-04-04 20:49:00,49.8,43.2,30.13,West,270,2.2,-999.0,78,-99.99,,,0.01,Acu-Link.com,2013-04-05 01:49:00,
2013-04-04 21:19:00,49.8,42.9,30.13,West,270,2.2,-999.0,77,-99.99,,,0.01,Acu-Link.com,2013-04-05 02:19:00,
2013-04-04 21:34:00,49.6,42.7,30.14,WNW,292,2.7,-999.0,77,-99.99,,,0.01,Acu-Link.com,2013-04-05 02:34:00,
2013-04-04 21:49:00,49.6,42.7,30.15,WNW,292,2.7,-999.0,77,-99.99,,,0.01,Acu-Link.com,2013-04-05 02:49:00,
2013-04-04 22:05:00,49.6,42.4,30.16,ESE,112,1.6,-999.0,76,-99.99,,,0.01,Acu-Link.com,2013-04-05 03:05:00,
2013-04-04 22:20:00,49.1,42.5,30.16,West,270,0.0,-999.0,78,-99.99,,,0.01,Acu-Link.com,2013-04-05 03:20:00,
2013-04-04 22:35:00,48.2,42.3,30.17,WNW,292,1.6,-999.0,80,-99.99,,,0.01,Acu-Link.com,2013-04-05 03:35:00,
2013-04-04 22:50:00,47.8,42.6,30.17,NW,315,2.2,-999.0,82,-99.99,,,0.01,Acu-Link.com,2013-04-05 03:50:00,
2013-04-04 23:05:00,47.3,42.4,30.18,WNW,292,2.7,-999.0,83,-99.99,,,0.01,Acu-Link.com,2013-04-05 04:05:00,
2013-04-04 23:21:00,46.8,42.2,30.17,WNW,292,0.0,-999.0,84,-99.99,,,0.01,Acu-Link.com,2013-04-05 04:21:00,
2013-04-04 23:36:00,46.4,42.1,30.17,West,270,1.6,-999.0,85,-99.99,,,0.01,Acu-Link.com,2013-04-05 04:36:00,
2013-04-04 23:51:00,45.5,42.2,30.17,SW,225,0.0,-999.0,88,-99.99,,,0.01,Acu-Link.com,2013-04-05 04:51:00,